Time;durP1;ratioP1;P1;durP2;ratioP2;P2;SDS_P1;SDS_P2;PMS_P1;PMS_P2;Temp;Humidity;BMP_temperature;BMP_pressure;BME280_temperature;BME280_humidity;BME280_pressure;Samples;Min_cycle;Max_cycle;Signal;HPM_P1;HPM_P2
2024/04/03 00:01:09;;;;;;;5.85;1.10;;;;;;;;;;5018699;28;20053;-80
2024/04/03 00:03:36;;;;;;;4.43;1.15;;;;;;;;;;5018911;28;20058;-80
2024/04/03 00:06:02;;;;;;;5.47;1.30;;;;;;;;;;5002659;28;20538;-81
2024/04/03 00:08:28;;;;;;;4.18;1.10;;;;;;;;;;5018001;28;20057;-80
2024/04/03 00:10:54;;;;;;;4.38;1.05;;;;;;;;;;5017971;28;20054;-80
2024/04/03 00:13:20;;;;;;;3.03;1.15;;;;;;;;;;5002439;28;20504;-81
2024/04/03 00:15:48;;;;;;;4.05;1.15;;;;;;;;;;5017530;28;20049;-81
2024/04/03 00:18:14;;;;;;;4.20;1.25;;;;;;;;;;5002133;28;20065;-80
2024/04/03 00:20:41;;;;;;;6.30;1.85;;;;;;;;;;5018970;28;20049;-81
2024/04/03 00:23:07;;;;;;;4.93;1.63;;;;;;;;;;5002411;28;20046;-80
2024/04/03 00:25:33;;;;;;;4.93;1.40;;;;;;;;;;5001209;28;20045;-80
2024/04/03 00:27:59;;;;;;;6.65;1.75;;;;;;;;;;5000883;28;20424;-80
2024/04/03 00:30:25;;;;;;;3.42;1.85;;;;;;;;;;5001646;28;20053;-80
2024/04/03 00:32:52;;;;;;;2.47;1.30;;;;;;;;;;5021287;28;20046;-81
2024/04/03 00:35:18;;;;;;;9.25;2.35;;;;;;;;;;5024939;28;20054;-81
2024/04/03 00:37:44;;;;;;;4.30;1.60;;;;;;;;;;5024101;28;20054;-81
2024/04/03 00:40:11;;;;;;;3.58;1.35;;;;;;;;;;5023297;28;20050;-82
2024/04/03 00:42:37;;;;;;;3.78;1.63;;;;;;;;;;5006325;28;20046;-80
2024/04/03 00:45:03;;;;;;;5.35;1.55;;;;;;;;;;5022068;28;20046;-81
2024/04/03 00:47:30;;;;;;;2.78;1.20;;;;;;;;;;5005941;28;20054;-81
2024/04/03 00:49:57;;;;;;;3.88;1.50;;;;;;;;;;5022428;28;20057;-81
2024/04/03 00:52:23;;;;;;;5.40;1.52;;;;;;;;;;5005559;28;20058;-82
2024/04/03 00:54:50;;;;;;;7.05;1.60;;;;;;;;;;5004875;28;20065;-81
2024/04/03 00:57:16;;;;;;;5.78;1.60;;;;;;;;;;5004804;28;20049;-80
2024/04/03 00:59:42;;;;;;;3.15;1.38;;;;;;;;;;5022222;28;20054;-81
2024/04/03 01:02:10;;;;;;;5.65;1.20;;;;;;;;;;5004462;28;20061;-81
2024/04/03 01:04:36;;;;;;;6.10;1.80;;;;;;;;;;5001877;28;20508;-80
2024/04/03 01:07:09;;;;;;;8.85;1.48;;;;;;;;;;5019823;28;20397;-81
2024/04/03 01:09:36;;;;;;;9.00;1.20;;;;;;;;;;5005351;28;20052;-81
2024/04/03 01:12:02;;;;;;;7.13;1.45;;;;;;;;;;5006232;28;20058;-81
2024/04/03 01:14:29;;;;;;;4.65;1.60;;;;;;;;;;5004482;28;20049;-81
2024/04/03 01:16:56;;;;;;;8.77;1.42;;;;;;;;;;5001193;28;20405;-80
2024/04/03 01:19:23;;;;;;;4.40;1.27;;;;;;;;;;5000200;28;20057;-81
2024/04/03 01:21:49;;;;;;;4.20;1.40;;;;;;;;;;5017966;28;20397;-81
2024/04/03 01:24:20;;;;;;;4.57;0.90;;;;;;;;;;5005915;28;20046;-82
2024/04/03 01:26:47;;;;;;;7.15;1.40;;;;;;;;;;5006643;28;20081;-81
2024/04/03 01:29:13;;;;;;;7.85;1.23;;;;;;;;;;5022621;28;20054;-82
2024/04/03 01:31:39;;;;;;;4.20;1.13;;;;;;;;;;5023290;28;20198;-82
2024/04/03 01:34:05;;;;;;;2.45;0.90;;;;;;;;;;5009271;28;20504;-81
2024/04/03 01:36:32;;;;;;;5.72;1.50;;;;;;;;;;5007476;28;20056;-81
2024/04/03 01:38:58;;;;;;;2.83;1.08;;;;;;;;;;5022382;28;20057;-81
2024/04/03 01:41:24;;;;;;;6.93;1.20;;;;;;;;;;5022242;28;20054;-81
2024/04/03 01:43:50;;;;;;;4.65;1.20;;;;;;;;;;5005406;28;20450;-81
2024/04/03 01:46:16;;;;;;;2.80;1.00;;;;;;;;;;5004259;28;20070;-81
2024/04/03 01:48:43;;;;;;;7.50;1.02;;;;;;;;;;5005111;28;20054;-81
2024/04/03 01:51:09;;;;;;;5.80;0.88;;;;;;;;;;5020324;28;20475;-81
2024/04/03 01:53:35;;;;;;;6.45;1.30;;;;;;;;;;4997389;28;20054;-81
2024/04/03 01:56:01;;;;;;;3.92;1.30;;;;;;;;;;4998898;28;20058;-81
2024/04/03 01:58:28;;;;;;;9.00;1.42;;;;;;;;;;5016063;28;20075;-80
2024/04/03 02:00:54;;;;;;;5.43;1.20;;;;;;;;;;4999899;28;20046;-81
2024/04/03 02:03:20;;;;;;;3.35;1.00;;;;;;;;;;5018690;28;20053;-80
2024/04/03 02:05:47;;;;;;;6.97;1.02;;;;;;;;;;5020060;28;20049;-81
2024/04/03 02:08:14;;;;;;;7.05;1.42;;;;;;;;;;5024599;28;20497;-82
2024/04/03 02:10:40;;;;;;;5.68;1.70;;;;;;;;;;5022981;28;20065;-81
2024/04/03 02:13:07;;;;;;;4.65;1.05;;;;;;;;;;5023309;28;20050;-81
2024/04/03 02:15:33;;;;;;;4.50;1.38;;;;;;;;;;5022177;28;20058;-81
2024/04/03 02:18:00;;;;;;;4.18;1.20;;;;;;;;;;5020416;28;20053;-80
2024/04/03 02:20:26;;;;;;;3.20;1.08;;;;;;;;;;5021117;28;20064;-81
2024/04/03 02:22:52;;;;;;;3.25;0.95;;;;;;;;;;5004720;28;20405;-81
2024/04/03 02:25:19;;;;;;;5.95;1.73;;;;;;;;;;5005352;28;20056;-81
2024/04/03 02:27:46;;;;;;;6.43;1.38;;;;;;;;;;5020364;28;20076;-81
2024/04/03 02:30:12;;;;;;;7.18;2.83;;;;;;;;;;5004230;28;20061;-81
2024/04/03 02:32:38;;;;;;;9.25;6.95;;;;;;;;;;5019706;28;20428;-80
2024/04/03 02:35:05;;;;;;;18.27;9.30;;;;;;;;;;5003900;28;20073;-81
2024/04/03 02:37:31;;;;;;;9.18;5.88;;;;;;;;;;5020233;28;20056;-81
2024/04/03 02:39:58;;;;;;;5.50;2.20;;;;;;;;;;5003277;28;20053;-80
2024/04/03 02:42:24;;;;;;;7.78;1.65;;;;;;;;;;5002414;28;20535;-80
2024/04/03 02:44:50;;;;;;;2.65;1.20;;;;;;;;;;5000902;28;20042;-81
2024/04/03 02:47:17;;;;;;;4.45;1.77;;;;;;;;;;5001710;28;20409;-80
2024/04/03 02:49:43;;;;;;;5.88;1.95;;;;;;;;;;5016519;28;20050;-80
2024/04/03 02:52:09;;;;;;;4.30;1.83;;;;;;;;;;5017352;28;20053;-80
2024/04/03 02:54:35;;;;;;;4.55;1.52;;;;;;;;;;5016177;28;20058;-80
2024/04/03 02:57:02;;;;;;;6.68;3.20;;;;;;;;;;5017014;28;20571;-80
2024/04/03 02:59:28;;;;;;;7.22;2.05;;;;;;;;;;5017451;28;20045;-80
2024/04/03 03:01:54;;;;;;;10.88;1.60;;;;;;;;;;5016531;28;20405;-80
2024/04/03 03:04:21;;;;;;;6.63;1.60;;;;;;;;;;5016507;28;20054;-81
2024/04/03 03:06:47;;;;;;;4.75;1.77;;;;;;;;;;4999896;28;20061;-80
2024/04/03 03:09:13;;;;;;;1.85;1.20;;;;;;;;;;5000071;28;20050;-80
2024/04/03 03:11:40;;;;;;;3.85;1.25;;;;;;;;;;5017439;28;20065;-81
2024/04/03 03:14:06;;;;;;;8.30;2.03;;;;;;;;;;5018030;28;20054;-81
2024/04/03 03:16:32;;;;;;;5.97;1.55;;;;;;;;;;5017801;28;20451;-81
2024/04/03 03:18:58;;;;;;;7.40;1.50;;;;;;;;;;5022975;28;20525;-80
2024/04/03 03:21:25;;;;;;;5.60;1.65;;;;;;;;;;5006750;28;20046;-81
2024/04/03 03:23:51;;;;;;;3.28;1.08;;;;;;;;;;5011133;28;20058;-81
2024/04/03 03:26:17;;;;;;;9.07;1.55;;;;;;;;;;5012139;28;20041;-80
2024/04/03 03:28:43;;;;;;;4.45;1.58;;;;;;;;;;5013360;28;20500;-80
2024/04/03 03:31:09;;;;;;;3.38;1.88;;;;;;;;;;5017648;28;20073;-81
2024/04/03 03:33:36;;;;;;;5.20;1.90;;;;;;;;;;5022732;28;20046;-81
2024/04/03 03:36:02;;;;;;;16.02;2.17;;;;;;;;;;5022381;28;20107;-81
2024/04/03 03:38:28;;;;;;;5.30;1.33;;;;;;;;;;5009828;28;20053;-80
2024/04/03 03:40:55;;;;;;;10.85;2.22;;;;;;;;;;5027504;28;20420;-80
2024/04/03 03:43:21;;;;;;;9.20;2.67;;;;;;;;;;5010343;28;20049;-81
2024/04/03 03:45:49;;;;;;;8.73;3.40;;;;;;;;;;5025959;28;20062;-81
2024/04/03 03:48:15;;;;;;;9.07;2.28;;;;;;;;;;5008467;28;20042;-80
2024/04/03 03:53:30;;;;;;;6.25;2.05;;;;;;;;;;5032601;28;20065;-79
2024/04/03 03:55:57;;;;;;;8.13;1.90;;;;;;;;;;5007201;28;20513;-81
2024/04/03 03:58:23;;;;;;;11.85;2.30;;;;;;;;;;5027261;28;20049;-81
2024/04/03 04:00:50;;;;;;;6.97;2.20;;;;;;;;;;5011378;28;20508;-81
2024/04/03 04:03:16;;;;;;;6.65;2.20;;;;;;;;;;5010107;28;20052;-81
2024/04/03 04:05:42;;;;;;;9.18;2.65;;;;;;;;;;5009793;28;20052;-80
2024/04/03 04:08:08;;;;;;;7.10;3.42;;;;;;;;;;5026135;28;20053;-81
2024/04/03 04:10:34;;;;;;;4.68;3.15;;;;;;;;;;5007785;28;20625;-81
2024/04/03 04:13:01;;;;;;;13.32;3.08;;;;;;;;;;5024355;28;20050;-81
2024/04/03 04:15:27;;;;;;;4.63;1.85;;;;;;;;;;5023443;28;20057;-81
2024/04/03 04:17:53;;;;;;;6.05;1.95;;;;;;;;;;5006656;28;20053;-82
2024/04/03 04:20:20;;;;;;;6.57;2.35;;;;;;;;;;5023313;28;20054;-82
2024/04/03 04:22:47;;;;;;;4.95;1.83;;;;;;;;;;5022973;28;20085;-83
2024/04/03 04:25:13;;;;;;;10.15;1.58;;;;;;;;;;5024707;28;20058;-83
2024/04/03 04:27:40;;;;;;;4.93;1.45;;;;;;;;;;5024219;28;20057;-81
2024/04/03 04:30:07;;;;;;;5.57;1.73;;;;;;;;;;5024131;28;20058;-81
2024/04/03 04:32:33;;;;;;;4.35;1.20;;;;;;;;;;5024064;28;20061;-82
2024/04/03 04:34:59;;;;;;;3.80;1.63;;;;;;;;;;5023848;28;20057;-81
2024/04/03 04:37:26;;;;;;;6.65;1.67;;;;;;;;;;5022022;28;20054;-80
2024/04/03 04:39:52;;;;;;;6.03;1.52;;;;;;;;;;5022177;28;20058;-81
2024/04/03 04:42:20;;;;;;;5.00;1.30;;;;;;;;;;5021272;28;20061;-83
2024/04/03 04:44:47;;;;;;;3.40;1.30;;;;;;;;;;5020190;28;20061;-81
2024/04/03 04:47:13;;;;;;;5.50;1.30;;;;;;;;;;5020814;28;20061;-81
2024/04/03 04:49:39;;;;;;;5.20;1.80;;;;;;;;;;5004088;28;20050;-81
2024/04/03 04:52:05;;;;;;;9.20;3.10;;;;;;;;;;5020588;28;20050;-81
2024/04/03 04:54:32;;;;;;;5.05;1.55;;;;;;;;;;5004043;28;20054;-81
2024/04/03 04:57:01;;;;;;;4.65;1.80;;;;;;;;;;5021030;28;20061;-81
2024/04/03 04:59:27;;;;;;;8.50;1.45;;;;;;;;;;5018084;28;20088;-80
2024/04/03 05:01:53;;;;;;;3.65;1.27;;;;;;;;;;5014474;28;20053;-81
2024/04/03 05:04:19;;;;;;;5.43;1.63;;;;;;;;;;4998452;28;20054;-81
2024/04/03 05:06:46;;;;;;;3.95;1.10;;;;;;;;;;5014911;28;21209;-80
2024/04/03 05:09:12;;;;;;;2.97;1.33;;;;;;;;;;5014890;28;20060;-81
2024/04/03 05:11:38;;;;;;;6.80;1.30;;;;;;;;;;5020484;28;20060;-81
2024/04/03 05:14:04;;;;;;;6.82;1.40;;;;;;;;;;5009419;28;20056;-81
2024/04/03 05:16:31;;;;;;;5.00;1.67;;;;;;;;;;5007251;28;20049;-81
2024/04/03 05:18:57;;;;;;;7.53;1.95;;;;;;;;;;5008082;28;20064;-82
2024/04/03 05:21:24;;;;;;;6.22;1.35;;;;;;;;;;5006256;28;20050;-80
2024/04/03 05:23:51;;;;;;;5.10;1.55;;;;;;;;;;5005802;28;20061;-81
2024/04/03 05:26:17;;;;;;;3.33;1.45;;;;;;;;;;5003608;28;20053;-82
2024/04/03 05:28:44;;;;;;;6.75;1.95;;;;;;;;;;5004546;28;20054;-81
2024/04/03 05:31:13;;;;;;;8.70;1.67;;;;;;;;;;5021771;28;20053;-81
2024/04/03 05:33:40;;;;;;;7.28;1.70;;;;;;;;;;5021574;28;20082;-81
2024/04/03 05:36:07;;;;;;;4.93;1.25;;;;;;;;;;5004908;28;20053;-82
2024/04/03 05:38:34;;;;;;;4.78;1.35;;;;;;;;;;5021260;28;20068;-81
2024/04/03 05:41:01;;;;;;;3.50;0.95;;;;;;;;;;5022196;28;20046;-81
2024/04/03 05:43:27;;;;;;;7.53;0.90;;;;;;;;;;5006082;28;20050;-81
2024/04/03 05:45:55;;;;;;;5.45;1.10;;;;;;;;;;5007649;28;20058;-83
2024/04/03 05:48:21;;;;;;;6.47;1.77;;;;;;;;;;5024276;28;20053;-81
2024/04/03 05:50:48;;;;;;;4.47;1.30;;;;;;;;;;5006767;28;20058;-81
2024/04/03 05:53:14;;;;;;;6.90;1.05;;;;;;;;;;5024352;28;20424;-82
2024/04/03 05:55:40;;;;;;;5.93;1.15;;;;;;;;;;5029013;28;20049;-81
2024/04/03 05:58:07;;;;;;;3.95;1.02;;;;;;;;;;5006814;28;20050;-82
2024/04/03 06:00:33;;;;;;;6.50;1.30;;;;;;;;;;5022622;28;20033;-82
2024/04/03 06:02:59;;;;;;;6.50;1.92;;;;;;;;;;5006952;28;20054;-82
2024/04/03 06:05:25;;;;;;;6.75;1.08;;;;;;;;;;5022771;28;20050;-82
2024/04/03 06:07:53;;;;;;;3.97;1.23;;;;;;;;;;5023482;28;20056;-82
2024/04/03 06:10:19;;;;;;;4.68;1.20;;;;;;;;;;5006822;28;20058;-82
2024/04/03 06:12:46;;;;;;;9.40;1.33;;;;;;;;;;5023575;28;20049;-82
2024/04/03 06:15:12;;;;;;;7.15;1.48;;;;;;;;;;5006705;28;20435;-83
2024/04/03 06:17:38;;;;;;;3.25;1.17;;;;;;;;;;5023383;28;20050;-82
2024/04/03 06:20:04;;;;;;;4.63;0.98;;;;;;;;;;5007534;28;20088;-82
2024/04/03 06:22:31;;;;;;;2.60;1.00;;;;;;;;;;5006772;28;20054;-82
2024/04/03 06:24:57;;;;;;;5.13;1.20;;;;;;;;;;5008299;28;20424;-81
2024/04/03 06:27:24;;;;;;;5.03;1.25;;;;;;;;;;5029143;28;20054;-81
2024/04/03 06:29:50;;;;;;;4.07;1.20;;;;;;;;;;5011583;28;20065;-81
2024/04/03 06:32:17;;;;;;;5.43;1.10;;;;;;;;;;5030209;28;20054;-82
2024/04/03 06:34:43;;;;;;;5.68;1.20;;;;;;;;;;5014442;28;20042;-79
2024/04/03 06:37:09;;;;;;;9.98;2.15;;;;;;;;;;5037910;28;20034;-79
2024/04/03 06:39:35;;;;;;;3.90;1.25;;;;;;;;;;5035919;28;20032;-81
2024/04/03 06:42:01;;;;;;;4.38;1.55;;;;;;;;;;5028446;28;20463;-81
2024/04/03 06:44:28;;;;;;;16.27;2.45;;;;;;;;;;5019197;28;20073;-79
2024/04/03 06:47:00;;;;;;;6.50;1.30;;;;;;;;;;5026171;28;20064;-83
2024/04/03 06:49:28;;;;;;;3.35;0.88;;;;;;;;;;5023952;28;20061;-82
2024/04/03 06:51:54;;;;;;;5.40;0.98;;;;;;;;;;5005663;28;20467;-81
2024/04/03 06:54:21;;;;;;;4.88;1.35;;;;;;;;;;5005725;28;20053;-83
2024/04/03 06:56:50;;;;;;;3.70;0.90;;;;;;;;;;5021714;28;20081;-82
2024/04/03 06:59:17;;;;;;;2.72;0.93;;;;;;;;;;5005311;28;20046;-82
2024/04/03 07:01:43;;;;;;;6.22;1.35;;;;;;;;;;5004501;28;20060;-82
2024/04/03 07:04:09;;;;;;;3.65;0.98;;;;;;;;;;5021386;28;20104;-82
2024/04/03 07:06:36;;;;;;;8.80;1.65;;;;;;;;;;5020732;28;20061;-82
2024/04/03 07:09:04;;;;;;;1.88;0.95;;;;;;;;;;5019522;28;20080;-82
2024/04/03 07:11:31;;;;;;;5.47;1.35;;;;;;;;;;5002136;28;20057;-81
2024/04/03 07:13:57;;;;;;;4.63;1.10;;;;;;;;;;5017543;28;20104;-81
2024/04/03 07:16:24;;;;;;;4.13;1.35;;;;;;;;;;5018225;28;20053;-82
2024/04/03 07:18:54;;;;;;;7.63;1.38;;;;;;;;;;5001587;28;20054;-81
2024/04/03 07:21:21;;;;;;;7.22;1.38;;;;;;;;;;5019975;28;20061;-83
2024/04/03 07:23:47;;;;;;;3.60;1.30;;;;;;;;;;5020506;28;20053;-81
2024/04/03 07:26:13;;;;;;;3.53;1.02;;;;;;;;;;5017340;28;20050;-82
2024/04/03 07:28:41;;;;;;;4.95;1.30;;;;;;;;;;5027981;28;20433;-81
2024/04/03 07:31:07;;;;;;;4.43;1.30;;;;;;;;;;5020904;28;20116;-82
2024/04/03 07:33:33;;;;;;;6.57;1.40;;;;;;;;;;5002830;28;20444;-82
2024/04/03 07:36:03;;;;;;;5.00;0.85;;;;;;;;;;5018243;28;20061;-81
2024/04/03 07:38:30;;;;;;;6.35;1.45;;;;;;;;;;5019861;28;20049;-82
2024/04/03 07:40:57;;;;;;;4.07;1.05;;;;;;;;;;5002367;28;20066;-82
2024/04/03 07:43:23;;;;;;;6.18;1.58;;;;;;;;;;5002431;28;20057;-81
2024/04/03 07:45:56;;;;;;;9.65;1.45;;;;;;;;;;5001349;28;20089;-82
2024/04/03 07:48:23;;;;;;;8.18;1.27;;;;;;;;;;5002415;28;20423;-84
2024/04/03 07:50:49;;;;;;;4.57;1.17;;;;;;;;;;5000294;28;20504;-82
2024/04/03 07:53:15;;;;;;;7.65;1.30;;;;;;;;;;5002065;28;20054;-82
2024/04/03 07:55:41;;;;;;;4.35;0.88;;;;;;;;;;5017635;28;20054;-83
2024/04/03 07:58:08;;;;;;;7.43;1.63;;;;;;;;;;5001768;28;20413;-82
2024/04/03 08:00:34;;;;;;;4.13;1.45;;;;;;;;;;5018726;28;20401;-81
2024/04/03 08:03:02;;;;;;;4.00;1.35;;;;;;;;;;5002608;28;20057;-81
2024/04/03 08:05:28;;;;;;;5.47;1.50;;;;;;;;;;5019374;28;20065;-83
2024/04/03 08:07:54;;;;;;;5.80;1.48;;;;;;;;;;5023546;28;20054;-83
2024/04/03 08:10:20;;;;;;;2.90;1.20;;;;;;;;;;5022460;28;20056;-83
2024/04/03 08:12:47;;;;;;;3.53;1.10;;;;;;;;;;5004133;28;20060;-82
2024/04/03 08:15:14;;;;;;;5.15;1.38;;;;;;;;;;5004478;28;20054;-83
2024/04/03 08:17:40;;;;;;;5.10;1.25;;;;;;;;;;5000725;28;20064;-82
2024/04/03 08:20:07;;;;;;;3.92;0.90;;;;;;;;;;5018789;28;20053;-83
2024/04/03 08:22:33;;;;;;;2.92;1.23;;;;;;;;;;5009588;28;20046;-83
2024/04/03 08:25:01;;;;;;;2.63;1.23;;;;;;;;;;5025302;28;20049;-82
2024/04/03 08:27:27;;;;;;;7.85;1.17;;;;;;;;;;5008808;28;20569;-80
2024/04/03 08:29:57;;;;;;;5.63;1.77;;;;;;;;;;5024200;28;20112;-82
2024/04/03 08:32:23;;;;;;;5.10;1.23;;;;;;;;;;5007931;28;20058;-81
2024/04/03 08:34:54;;;;;;;4.18;1.17;;;;;;;;;;5007113;28;20054;-82
2024/04/03 08:37:20;;;;;;;4.93;1.08;;;;;;;;;;5006758;28;20062;-81
2024/04/03 08:39:50;;;;;;;3.17;1.00;;;;;;;;;;5030087;28;20108;-83
2024/04/03 08:42:16;;;;;;;5.95;1.98;;;;;;;;;;5004471;28;20054;-82
2024/04/03 08:44:43;;;;;;;5.82;0.90;;;;;;;;;;5019364;28;20057;-81
2024/04/03 08:47:09;;;;;;;8.02;1.58;;;;;;;;;;5004192;28;20500;-81
2024/04/03 08:49:36;;;;;;;2.42;0.93;;;;;;;;;;5002853;28;20116;-81
2024/04/03 08:52:02;;;;;;;3.15;1.13;;;;;;;;;;5018926;28;20467;-81
2024/04/03 08:54:29;;;;;;;2.13;0.80;;;;;;;;;;5002283;28;20057;-81
2024/04/03 08:56:55;;;;;;;4.15;1.10;;;;;;;;;;5017808;28;20046;-81
2024/04/03 08:59:22;;;;;;;1.75;0.88;;;;;;;;;;5003038;28;20052;-81
2024/04/03 09:01:52;;;;;;;4.43;1.15;;;;;;;;;;5017561;28;20416;-82
2024/04/03 09:04:21;;;;;;;3.75;1.27;;;;;;;;;;5001394;28;20054;-81
2024/04/03 09:06:47;;;;;;;6.88;1.73;;;;;;;;;;5008969;28;20532;-81
2024/04/03 09:09:17;;;;;;;3.45;1.27;;;;;;;;;;5000464;28;20077;-81
2024/04/03 09:11:43;;;;;;;3.58;1.00;;;;;;;;;;5015660;28;20504;-81
2024/04/03 09:14:10;;;;;;;6.30;0.88;;;;;;;;;;5000488;28;20512;-82
2024/04/03 09:16:36;;;;;;;3.10;1.00;;;;;;;;;;4999984;28;20061;-82
2024/04/03 09:19:06;;;;;;;4.60;0.90;;;;;;;;;;5000199;28;20420;-82
2024/04/03 09:21:33;;;;;;;6.38;0.95;;;;;;;;;;5032805;28;20046;-80
2024/04/03 09:23:59;;;;;;;4.88;1.05;;;;;;;;;;5000315;28;20416;-81
2024/04/03 09:26:26;;;;;;;4.47;0.90;;;;;;;;;;5000002;28;20397;-82
2024/04/03 09:29:02;;;;;;;3.53;0.85;;;;;;;;;;5000058;28;20050;-81
2024/04/03 09:31:28;;;;;;;4.68;0.95;;;;;;;;;;4999922;28;20531;-82
2024/04/03 09:33:55;;;;;;;4.07;0.90;;;;;;;;;;5001528;28;20058;-81
2024/04/03 09:36:22;;;;;;;5.03;1.50;;;;;;;;;;4999911;28;20053;-81
2024/04/03 09:38:49;;;;;;;2.70;0.80;;;;;;;;;;5016867;28;20378;-82
2024/04/03 09:41:16;;;;;;;3.03;1.00;;;;;;;;;;4998922;28;20053;-81
2024/04/03 09:43:46;;;;;;;9.25;1.65;;;;;;;;;;4997931;28;20504;-81
2024/04/03 09:46:13;;;;;;;4.40;1.15;;;;;;;;;;5014276;28;20057;-82
2024/04/03 09:48:45;;;;;;;4.13;1.10;;;;;;;;;;4998252;28;20061;-82
2024/04/03 09:51:11;;;;;;;3.53;0.75;;;;;;;;;;4999010;28;20057;-81
2024/04/03 09:53:38;;;;;;;3.13;0.80;;;;;;;;;;5019651;28;20081;-82
2024/04/03 09:56:04;;;;;;;7.55;1.40;;;;;;;;;;5009930;28;20053;-82
2024/04/03 09:58:35;;;;;;;5.82;1.05;;;;;;;;;;5022812;28;20054;-81
2024/04/03 10:01:03;;;;;;;3.58;0.90;;;;;;;;;;5022351;28;20053;-81
2024/04/03 10:03:34;;;;;;;13.20;1.70;;;;;;;;;;5003842;28;20050;-83
2024/04/03 10:06:02;;;;;;;6.20;0.85;;;;;;;;;;5004798;28;20077;-83
2024/04/03 10:08:35;;;;;;;4.82;0.90;;;;;;;;;;5019633;28;20504;-82
2024/04/03 10:11:11;;;;;;;1.92;0.47;;;;;;;;;;5004581;28;20050;-82
2024/04/03 10:13:41;;;;;;;2.92;0.73;;;;;;;;;;5003515;28;20065;-82
2024/04/03 10:16:08;;;;;;;4.65;1.55;;;;;;;;;;5018878;28;20049;-82
2024/04/03 10:18:35;;;;;;;2.60;0.98;;;;;;;;;;5002413;28;20437;-83
2024/04/03 10:21:04;;;;;;;4.45;0.70;;;;;;;;;;5018141;28;20045;-81
2024/04/03 10:23:39;;;;;;;3.17;0.70;;;;;;;;;;5000822;28;20049;-83
2024/04/03 10:26:06;;;;;;;3.50;0.90;;;;;;;;;;5016796;28;20053;-82
2024/04/03 10:28:32;;;;;;;2.70;0.82;;;;;;;;;;4999694;28;20504;-81
2024/04/03 10:30:58;;;;;;;3.08;0.77;;;;;;;;;;5000021;28;20057;-81
2024/04/03 10:33:25;;;;;;;1.35;0.68;;;;;;;;;;4998633;28;20116;-81
2024/04/03 10:35:52;;;;;;;2.28;0.68;;;;;;;;;;5014291;28;20054;-82
2024/04/03 10:38:19;;;;;;;4.78;1.02;;;;;;;;;;4997542;28;20401;-83
2024/04/03 10:40:47;;;;;;;10.95;1.30;;;;;;;;;;5021889;28;20054;-81
2024/04/03 10:43:14;;;;;;;3.50;0.50;;;;;;;;;;4998091;28;20504;-81
2024/04/03 10:45:40;;;;;;;3.00;0.80;;;;;;;;;;4997354;28;20061;-82
2024/04/03 10:48:10;;;;;;;0.98;0.60;;;;;;;;;;4997318;28;20050;-81
2024/04/03 10:50:37;;;;;;;2.25;1.02;;;;;;;;;;5013911;28;20076;-82
2024/04/03 10:53:04;;;;;;;3.28;0.70;;;;;;;;;;4997502;28;20057;-81
2024/04/03 10:55:31;;;;;;;9.48;1.55;;;;;;;;;;5014014;28;20054;-82
2024/04/03 10:58:02;;;;;;;10.55;1.00;;;;;;;;;;5014209;28;20493;-82
2024/04/03 11:00:32;;;;;;;5.43;0.95;;;;;;;;;;4998054;28;20060;-80
2024/04/03 11:02:59;;;;;;;3.50;0.85;;;;;;;;;;5014036;28;20149;-84
2024/04/03 11:05:27;;;;;;;4.90;0.70;;;;;;;;;;5013358;28;20054;-81
2024/04/03 11:07:54;;;;;;;2.35;0.90;;;;;;;;;;5013384;28;20046;-81
2024/04/03 11:10:21;;;;;;;1.48;0.88;;;;;;;;;;5013675;28;20127;-82
2024/04/03 11:12:48;;;;;;;1.48;0.82;;;;;;;;;;4997135;28;20053;-81
2024/04/03 11:15:16;;;;;;;2.38;0.82;;;;;;;;;;4996744;28;20065;-81
2024/04/03 11:17:42;;;;;;;3.08;1.02;;;;;;;;;;5012241;28;20061;-81
2024/04/03 11:20:08;;;;;;;1.98;0.70;;;;;;;;;;5013221;28;20050;-81
2024/04/03 11:22:34;;;;;;;3.28;0.80;;;;;;;;;;5019198;28;20053;-81
2024/04/03 11:25:02;;;;;;;1.15;0.50;;;;;;;;;;5020070;28;20053;-81
2024/04/03 11:27:28;;;;;;;2.15;0.52;;;;;;;;;;5021195;28;20062;-81
2024/04/03 11:29:54;;;;;;;3.22;0.73;;;;;;;;;;5025378;28;20054;-82
2024/04/03 11:32:21;;;;;;;8.13;1.08;;;;;;;;;;5020546;28;20057;-83
2024/04/03 11:34:48;;;;;;;1.70;0.98;;;;;;;;;;5020221;28;20064;-82
2024/04/03 11:37:14;;;;;;;3.50;1.00;;;;;;;;;;5004360;28;20050;-84
2024/04/03 11:39:40;;;;;;;3.20;0.50;;;;;;;;;;5020976;28;20061;-82
2024/04/03 11:42:07;;;;;;;1.15;1.00;;;;;;;;;;5019971;28;20046;-83
2024/04/03 11:44:33;;;;;;;1.40;0.85;;;;;;;;;;5003666;28;20054;-82
2024/04/03 11:46:59;;;;;;;0.82;0.60;;;;;;;;;;5020237;28;20054;-82
2024/04/03 11:49:26;;;;;;;2.40;1.42;;;;;;;;;;5001863;28;20053;-83
2024/04/03 11:51:53;;;;;;;2.22;0.98;;;;;;;;;;5003248;28;20053;-81
2024/04/03 11:54:19;;;;;;;3.08;0.50;;;;;;;;;;5003564;28;20046;-83
2024/04/03 11:56:45;;;;;;;2.35;0.73;;;;;;;;;;5003526;28;20496;-81
2024/04/03 11:59:11;;;;;;;0.57;0.43;;;;;;;;;;5004297;28;20046;-82
2024/04/03 12:01:38;;;;;;;3.50;0.88;;;;;;;;;;5002911;28;20475;-82
2024/04/03 12:04:04;;;;;;;2.30;0.50;;;;;;;;;;5019014;28;20056;-84
2024/04/03 12:06:30;;;;;;;6.05;0.82;;;;;;;;;;5019032;28;20408;-82
2024/04/03 12:08:57;;;;;;;1.80;0.70;;;;;;;;;;5008815;28;20056;-83
2024/04/03 12:11:24;;;;;;;2.97;0.70;;;;;;;;;;5009173;28;20061;-82
2024/04/03 12:13:50;;;;;;;3.65;0.68;;;;;;;;;;5000543;28;20524;-82
2024/04/03 12:16:20;;;;;;;2.17;0.80;;;;;;;;;;5017153;28;20087;-82
2024/04/03 12:18:50;;;;;;;2.55;0.73;;;;;;;;;;5016711;28;20060;-82
2024/04/03 12:21:17;;;;;;;2.10;0.80;;;;;;;;;;5017408;28;20062;-82
2024/04/03 12:23:45;;;;;;;2.60;0.77;;;;;;;;;;5017040;28;20046;-81
2024/04/03 12:26:12;;;;;;;1.55;0.80;;;;;;;;;;5017798;28;20054;-81
2024/04/03 12:28:39;;;;;;;1.42;0.80;;;;;;;;;;5000922;28;20054;-82
2024/04/03 12:31:06;;;;;;;3.90;0.88;;;;;;;;;;5002532;28;20050;-82
2024/04/03 12:33:32;;;;;;;6.53;1.67;;;;;;;;;;5018672;28;20054;-81
2024/04/03 12:35:58;;;;;;;7.00;1.70;;;;;;;;;;5019349;28;20062;-81
2024/04/03 12:38:25;;;;;;;1.73;0.98;;;;;;;;;;5017266;28;20520;-82
2024/04/03 12:40:51;;;;;;;5.20;1.05;;;;;;;;;;5000123;28;20081;-83
2024/04/03 12:43:18;;;;;;;2.28;1.40;;;;;;;;;;5000108;28;20065;-82
2024/04/03 12:45:46;;;;;;;3.40;1.15;;;;;;;;;;5015194;28;20080;-82
2024/04/03 12:48:13;;;;;;;2.20;1.17;;;;;;;;;;5015677;28;20058;-81
2024/04/03 12:50:39;;;;;;;1.80;0.70;;;;;;;;;;4998787;28;20061;-84
2024/04/03 12:53:05;;;;;;;0.95;0.77;;;;;;;;;;5016151;28;20046;-83
2024/04/03 12:55:31;;;;;;;1.90;0.55;;;;;;;;;;4998855;28;20057;-81
2024/04/03 12:57:59;;;;;;;2.95;0.93;;;;;;;;;;5016072;28;20050;-81
2024/04/03 13:00:25;;;;;;;1.13;0.93;;;;;;;;;;5015151;28;20054;-81
2024/04/03 13:02:51;;;;;;;1.05;0.60;;;;;;;;;;5002917;28;20046;-84
2024/04/03 13:05:18;;;;;;;2.63;0.60;;;;;;;;;;5012814;28;20427;-82
2024/04/03 13:07:44;;;;;;;4.57;0.75;;;;;;;;;;5002580;28;20053;-81
2024/04/03 13:10:10;;;;;;;0.95;0.80;;;;;;;;;;5000704;28;20061;-82
2024/04/03 13:12:36;;;;;;;2.65;1.13;;;;;;;;;;5016409;28;20049;-82
2024/04/03 13:15:03;;;;;;;2.80;0.98;;;;;;;;;;5000800;28;20057;-81
2024/04/03 13:17:30;;;;;;;3.20;0.70;;;;;;;;;;5015308;28;20058;-82
2024/04/03 13:19:58;;;;;;;2.83;0.82;;;;;;;;;;4999536;28;20050;-82
2024/04/03 13:22:31;;;;;;;3.17;0.70;;;;;;;;;;4999756;28;20112;-83
2024/04/03 13:24:57;;;;;;;2.93;0.73;;;;;;;;;;5000065;28;20045;-82
2024/04/03 13:27:23;;;;;;;6.68;1.02;;;;;;;;;;5001128;28;20061;-82
2024/04/03 13:29:50;;;;;;;21.30;1.90;;;;;;;;;;5001912;28;20550;-81
2024/04/03 13:32:17;;;;;;;1.65;0.60;;;;;;;;;;5016845;28;20050;-82
2024/04/03 13:34:44;;;;;;;4.63;0.60;;;;;;;;;;5000402;28;20053;-83
2024/04/03 13:37:10;;;;;;;5.47;0.98;;;;;;;;;;5000928;28;20058;-82
2024/04/03 13:39:36;;;;;;;2.30;0.93;;;;;;;;;;5016736;28;20081;-82
2024/04/03 13:42:03;;;;;;;4.28;1.27;;;;;;;;;;5000733;28;20050;-82
2024/04/03 13:44:29;;;;;;;3.60;0.40;;;;;;;;;;5000188;28;20050;-80
2024/04/03 13:46:56;;;;;;;1.95;0.30;;;;;;;;;;5000288;28;20398;-82
2024/04/03 13:49:22;;;;;;;0.65;0.40;;;;;;;;;;4999879;28;20092;-81
2024/04/03 13:51:48;;;;;;;1.05;0.60;;;;;;;;;;5015887;28;20050;-80
2024/04/03 13:54:15;;;;;;;2.22;0.75;;;;;;;;;;5015786;28;20057;-82
2024/04/03 13:56:42;;;;;;;1.05;0.40;;;;;;;;;;5000635;28;20053;-82
2024/04/03 13:59:08;;;;;;;2.28;0.40;;;;;;;;;;5014634;28;20049;-82
2024/04/03 14:01:34;;;;;;;3.42;0.77;;;;;;;;;;4998641;28;20475;-81
2024/04/03 14:04:00;;;;;;;0.70;0.45;;;;;;;;;;4998287;28;20062;-82
2024/04/03 14:06:27;;;;;;;0.30;0.30;;;;;;;;;;5014921;28;20054;-81
2024/04/03 14:08:53;;;;;;;3.65;0.73;;;;;;;;;;4997740;28;20046;-82
2024/04/03 14:11:20;;;;;;;1.50;0.50;;;;;;;;;;5014976;28;20049;-81
2024/04/03 14:13:49;;;;;;;0.77;0.20;;;;;;;;;;5014595;28;21516;-80
2024/04/03 14:16:16;;;;;;;0.50;0.40;;;;;;;;;;4998885;28;20531;-82
2024/04/03 14:18:42;;;;;;;1.08;0.45;;;;;;;;;;5014867;28;20049;-82
2024/04/03 14:21:09;;;;;;;0.40;0.22;;;;;;;;;;5015570;28;20054;-82
2024/04/03 14:23:35;;;;;;;0.85;0.30;;;;;;;;;;5016134;28;20054;-82
2024/04/03 14:26:03;;;;;;;0.98;0.68;;;;;;;;;;4999929;28;20056;-82
2024/04/03 14:28:29;;;;;;;4.20;0.60;;;;;;;;;;5016112;28;20061;-82
2024/04/03 14:30:56;;;;;;;5.82;0.80;;;;;;;;;;5000741;28;20125;-81
2024/04/03 14:33:22;;;;;;;0.35;0.35;;;;;;;;;;4999253;28;20058;-81
2024/04/03 14:35:49;;;;;;;1.95;0.50;;;;;;;;;;5014785;28;20097;-83
2024/04/03 14:38:15;;;;;;;0.65;0.65;;;;;;;;;;5006939;28;20052;-84
2024/04/03 14:40:42;;;;;;;0.30;0.30;;;;;;;;;;5019824;28;20088;-83
2024/04/03 14:43:09;;;;;;;2.17;1.35;;;;;;;;;;5004263;28;20054;-83